sensor_id;sensor_type;location;lat;lon;timestamp;temperature;humidity
41922;DHT22;27609;51.002;5.354;2023-09-30T00:00:25;12.10;99.90
41922;DHT22;27609;51.002;5.354;2023-09-30T00:02:51;12.10;99.90
41922;DHT22;27609;51.002;5.354;2023-09-30T00:05:17;12.10;99.90
41922;DHT22;27609;51.002;5.354;2023-09-30T00:07:45;12.10;99.90
41922;DHT22;27609;51.002;5.354;2023-09-30T00:10:11;12.20;99.90
41922;DHT22;27609;51.002;5.354;2023-09-30T00:12:37;12.30;99.90
41922;DHT22;27609;51.002;5.354;2023-09-30T00:15:03;12.30;99.90
41922;DHT22;27609;51.002;5.354;2023-09-30T00:17:29;12.40;99.90
41922;DHT22;27609;51.002;5.354;2023-09-30T00:19:55;12.50;99.90
41922;DHT22;27609;51.002;5.354;2023-09-30T00:22:21;12.50;99.90
41922;DHT22;27609;51.002;5.354;2023-09-30T00:24:46;12.50;99.90
41922;DHT22;27609;51.002;5.354;2023-09-30T00:27:12;12.30;99.90
41922;DHT22;27609;51.002;5.354;2023-09-30T00:29:38;12.30;99.90
41922;DHT22;27609;51.002;5.354;2023-09-30T00:32:04;12.30;99.90
41922;DHT22;27609;51.002;5.354;2023-09-30T00:34:34;12.40;99.90
41922;DHT22;27609;51.002;5.354;2023-09-30T00:37:00;12.50;99.90
41922;DHT22;27609;51.002;5.354;2023-09-30T00:39:26;12.50;99.90
41922;DHT22;27609;51.002;5.354;2023-09-30T00:41:59;12.50;99.90
41922;DHT22;27609;51.002;5.354;2023-09-30T00:44:28;12.40;99.90
41922;DHT22;27609;51.002;5.354;2023-09-30T00:46:54;12.50;99.90
41922;DHT22;27609;51.002;5.354;2023-09-30T00:49:24;12.50;99.90
41922;DHT22;27609;51.002;5.354;2023-09-30T00:51:50;12.50;99.90
41922;DHT22;27609;51.002;5.354;2023-09-30T00:54:17;12.60;99.90
41922;DHT22;27609;51.002;5.354;2023-09-30T00:56:45;12.50;99.90
41922;DHT22;27609;51.002;5.354;2023-09-30T00:59:13;12.50;99.90
41922;DHT22;27609;51.002;5.354;2023-09-30T01:01:38;12.50;99.90
41922;DHT22;27609;51.002;5.354;2023-09-30T01:04:05;12.60;99.90
41922;DHT22;27609;51.002;5.354;2023-09-30T01:06:31;12.50;99.90
41922;DHT22;27609;51.002;5.354;2023-09-30T01:08:57;12.50;99.90
41922;DHT22;27609;51.002;5.354;2023-09-30T01:11:23;12.40;99.90
41922;DHT22;27609;51.002;5.354;2023-09-30T01:13:49;12.20;99.90
41922;DHT22;27609;51.002;5.354;2023-09-30T01:16:15;12.20;99.90
41922;DHT22;27609;51.002;5.354;2023-09-30T01:18:41;12.30;99.90
41922;DHT22;27609;51.002;5.354;2023-09-30T01:21:08;12.50;99.90
41922;DHT22;27609;51.002;5.354;2023-09-30T01:23:35;12.60;99.90
41922;DHT22;27609;51.002;5.354;2023-09-30T01:26:04;12.60;99.90
41922;DHT22;27609;51.002;5.354;2023-09-30T01:28:32;12.60;99.90
41922;DHT22;27609;51.002;5.354;2023-09-30T01:30:58;12.70;99.90
41922;DHT22;27609;51.002;5.354;2023-09-30T01:33:24;12.70;99.90
41922;DHT22;27609;51.002;5.354;2023-09-30T01:35:49;12.70;99.90
41922;DHT22;27609;51.002;5.354;2023-09-30T01:38:15;12.70;99.90
41922;DHT22;27609;51.002;5.354;2023-09-30T01:40:41;12.80;99.90
41922;DHT22;27609;51.002;5.354;2023-09-30T01:43:08;12.70;99.90
41922;DHT22;27609;51.002;5.354;2023-09-30T01:45:33;12.60;99.90
41922;DHT22;27609;51.002;5.354;2023-09-30T01:48:01;12.60;99.90
41922;DHT22;27609;51.002;5.354;2023-09-30T01:50:27;12.50;99.90
41922;DHT22;27609;51.002;5.354;2023-09-30T01:52:53;12.40;99.90
41922;DHT22;27609;51.002;5.354;2023-09-30T01:55:19;12.40;99.90
41922;DHT22;27609;51.002;5.354;2023-09-30T01:57:44;12.30;99.90
41922;DHT22;27609;51.002;5.354;2023-09-30T02:00:10;12.30;99.90
41922;DHT22;27609;51.002;5.354;2023-09-30T02:02:38;12.20;99.90
41922;DHT22;27609;51.002;5.354;2023-09-30T02:05:04;12.10;99.90
41922;DHT22;27609;51.002;5.354;2023-09-30T02:07:29;12.10;99.90
41922;DHT22;27609;51.002;5.354;2023-09-30T02:09:57;12.10;99.90
41922;DHT22;27609;51.002;5.354;2023-09-30T02:12:23;12.00;99.90
41922;DHT22;27609;51.002;5.354;2023-09-30T02:14:48;11.90;99.90
41922;DHT22;27609;51.002;5.354;2023-09-30T02:17:14;11.70;99.90
41922;DHT22;27609;51.002;5.354;2023-09-30T02:19:39;11.50;99.90
41922;DHT22;27609;51.002;5.354;2023-09-30T02:22:06;11.40;99.90
41922;DHT22;27609;51.002;5.354;2023-09-30T02:24:32;11.40;99.90
41922;DHT22;27609;51.002;5.354;2023-09-30T02:26:57;11.40;99.90
41922;DHT22;27609;51.002;5.354;2023-09-30T02:29:24;11.50;99.90
41922;DHT22;27609;51.002;5.354;2023-09-30T02:31:49;11.50;99.90
41922;DHT22;27609;51.002;5.354;2023-09-30T02:34:15;11.50;99.90
41922;DHT22;27609;51.002;5.354;2023-09-30T02:36:41;11.50;99.90
41922;DHT22;27609;51.002;5.354;2023-09-30T02:39:07;11.50;99.90
41922;DHT22;27609;51.002;5.354;2023-09-30T02:41:35;11.50;99.90
41922;DHT22;27609;51.002;5.354;2023-09-30T02:44:01;11.60;99.90
41922;DHT22;27609;51.002;5.354;2023-09-30T02:46:26;11.50;99.90
41922;DHT22;27609;51.002;5.354;2023-09-30T02:48:53;11.50;99.90
41922;DHT22;27609;51.002;5.354;2023-09-30T02:51:19;11.50;99.90
41922;DHT22;27609;51.002;5.354;2023-09-30T02:53:45;11.40;99.90
41922;DHT22;27609;51.002;5.354;2023-09-30T02:56:11;11.30;99.90
41922;DHT22;27609;51.002;5.354;2023-09-30T02:58:37;11.10;99.90
41922;DHT22;27609;51.002;5.354;2023-09-30T03:01:04;11.20;99.90
41922;DHT22;27609;51.002;5.354;2023-09-30T03:03:29;11.20;99.90
41922;DHT22;27609;51.002;5.354;2023-09-30T03:05:56;11.20;99.90
41922;DHT22;27609;51.002;5.354;2023-09-30T03:08:23;11.20;99.90
41922;DHT22;27609;51.002;5.354;2023-09-30T03:10:50;11.10;99.90
41922;DHT22;27609;51.002;5.354;2023-09-30T03:13:16;11.20;99.90
41922;DHT22;27609;51.002;5.354;2023-09-30T03:15:44;11.30;99.90
41922;DHT22;27609;51.002;5.354;2023-09-30T03:18:09;11.30;99.90
41922;DHT22;27609;51.002;5.354;2023-09-30T03:20:35;11.40;99.90
41922;DHT22;27609;51.002;5.354;2023-09-30T03:23:06;11.50;99.90
41922;DHT22;27609;51.002;5.354;2023-09-30T03:25:31;11.60;99.90
41922;DHT22;27609;51.002;5.354;2023-09-30T03:27:58;11.60;99.90
41922;DHT22;27609;51.002;5.354;2023-09-30T03:30:23;11.60;99.90
41922;DHT22;27609;51.002;5.354;2023-09-30T03:32:50;11.40;99.90
41922;DHT22;27609;51.002;5.354;2023-09-30T03:35:15;11.40;99.90
41922;DHT22;27609;51.002;5.354;2023-09-30T03:37:45;11.40;99.90
41922;DHT22;27609;51.002;5.354;2023-09-30T03:40:12;11.40;99.90
41922;DHT22;27609;51.002;5.354;2023-09-30T03:42:40;11.40;99.90
41922;DHT22;27609;51.002;5.354;2023-09-30T03:45:08;11.40;99.90
41922;DHT22;27609;51.002;5.354;2023-09-30T03:47:38;11.40;99.90
41922;DHT22;27609;51.002;5.354;2023-09-30T03:50:04;11.40;99.90
41922;DHT22;27609;51.002;5.354;2023-09-30T03:52:34;11.40;99.90
41922;DHT22;27609;51.002;5.354;2023-09-30T03:55:00;11.40;99.90
41922;DHT22;27609;51.002;5.354;2023-09-30T03:57:33;11.40;99.90
41922;DHT22;27609;51.002;5.354;2023-09-30T04:00:02;11.50;99.90
41922;DHT22;27609;51.002;5.354;2023-09-30T04:02:31;11.60;99.90
41922;DHT22;27609;51.002;5.354;2023-09-30T04:04:57;11.60;99.90
41922;DHT22;27609;51.002;5.354;2023-09-30T04:07:23;11.50;99.90
41922;DHT22;27609;51.002;5.354;2023-09-30T04:09:54;11.40;99.90
41922;DHT22;27609;51.002;5.354;2023-09-30T04:12:20;11.40;99.90
41922;DHT22;27609;51.002;5.354;2023-09-30T04:14:46;11.50;99.90
41922;DHT22;27609;51.002;5.354;2023-09-30T04:17:12;11.50;99.90
41922;DHT22;27609;51.002;5.354;2023-09-30T04:19:37;11.50;99.90
41922;DHT22;27609;51.002;5.354;2023-09-30T04:22:03;11.50;99.90
41922;DHT22;27609;51.002;5.354;2023-09-30T04:24:29;11.60;99.90
41922;DHT22;27609;51.002;5.354;2023-09-30T04:26:55;11.60;99.90
41922;DHT22;27609;51.002;5.354;2023-09-30T04:29:27;11.50;99.90
41922;DHT22;27609;51.002;5.354;2023-09-30T04:31:52;11.60;99.90
41922;DHT22;27609;51.002;5.354;2023-09-30T04:34:18;11.60;99.90
41922;DHT22;27609;51.002;5.354;2023-09-30T04:36:44;11.60;99.90
41922;DHT22;27609;51.002;5.354;2023-09-30T04:39:10;11.50;99.90
41922;DHT22;27609;51.002;5.354;2023-09-30T04:41:38;11.50;99.90
41922;DHT22;27609;51.002;5.354;2023-09-30T04:44:07;11.40;99.90
41922;DHT22;27609;51.002;5.354;2023-09-30T04:46:35;11.40;99.90
41922;DHT22;27609;51.002;5.354;2023-09-30T04:49:02;11.40;99.90
41922;DHT22;27609;51.002;5.354;2023-09-30T04:51:28;11.40;99.90
41922;DHT22;27609;51.002;5.354;2023-09-30T04:53:53;11.40;99.90
41922;DHT22;27609;51.002;5.354;2023-09-30T04:56:20;11.40;99.90
41922;DHT22;27609;51.002;5.354;2023-09-30T04:58:46;11.40;99.90
41922;DHT22;27609;51.002;5.354;2023-09-30T05:01:12;11.40;99.90
41922;DHT22;27609;51.002;5.354;2023-09-30T05:03:38;11.30;99.90
41922;DHT22;27609;51.002;5.354;2023-09-30T05:06:04;11.40;99.90
41922;DHT22;27609;51.002;5.354;2023-09-30T05:08:29;11.40;99.90
41922;DHT22;27609;51.002;5.354;2023-09-30T05:10:56;11.50;99.90
41922;DHT22;27609;51.002;5.354;2023-09-30T05:13:22;11.40;99.90
41922;DHT22;27609;51.002;5.354;2023-09-30T05:15:49;11.40;99.90
41922;DHT22;27609;51.002;5.354;2023-09-30T05:18:15;11.40;99.90
41922;DHT22;27609;51.002;5.354;2023-09-30T05:20:41;11.40;99.90
41922;DHT22;27609;51.002;5.354;2023-09-30T05:23:06;11.30;99.90
41922;DHT22;27609;51.002;5.354;2023-09-30T05:25:39;11.20;99.90
41922;DHT22;27609;51.002;5.354;2023-09-30T05:28:05;11.20;99.90
41922;DHT22;27609;51.002;5.354;2023-09-30T05:30:32;11.20;99.90
41922;DHT22;27609;51.002;5.354;2023-09-30T05:32:59;11.20;99.90
41922;DHT22;27609;51.002;5.354;2023-09-30T05:35:26;11.20;99.90
41922;DHT22;27609;51.002;5.354;2023-09-30T05:37:52;11.10;99.90
41922;DHT22;27609;51.002;5.354;2023-09-30T05:40:21;11.00;99.90
41922;DHT22;27609;51.002;5.354;2023-09-30T05:42:48;11.00;99.90
41922;DHT22;27609;51.002;5.354;2023-09-30T05:45:15;11.00;99.90
41922;DHT22;27609;51.002;5.354;2023-09-30T05:47:41;10.90;99.90
41922;DHT22;27609;51.002;5.354;2023-09-30T05:50:08;10.90;99.90
41922;DHT22;27609;51.002;5.354;2023-09-30T05:52:43;10.90;99.90
41922;DHT22;27609;51.002;5.354;2023-09-30T05:55:11;10.80;99.90
41922;DHT22;27609;51.002;5.354;2023-09-30T05:57:36;10.80;99.90
41922;DHT22;27609;51.002;5.354;2023-09-30T06:00:03;10.90;99.90
41922;DHT22;27609;51.002;5.354;2023-09-30T06:02:52;10.90;99.90
41922;DHT22;27609;51.002;5.354;2023-09-30T06:05:18;10.90;99.90
41922;DHT22;27609;51.002;5.354;2023-09-30T06:07:48;11.00;99.90
41922;DHT22;27609;51.002;5.354;2023-09-30T06:10:14;11.10;99.90
41922;DHT22;27609;51.002;5.354;2023-09-30T06:12:45;11.20;99.90
41922;DHT22;27609;51.002;5.354;2023-09-30T06:15:12;11.30;99.90
41922;DHT22;27609;51.002;5.354;2023-09-30T06:17:38;11.40;99.90
41922;DHT22;27609;51.002;5.354;2023-09-30T06:20:05;11.50;99.90
41922;DHT22;27609;51.002;5.354;2023-09-30T06:22:33;11.70;99.90
41922;DHT22;27609;51.002;5.354;2023-09-30T06:24:59;11.70;99.90
41922;DHT22;27609;51.002;5.354;2023-09-30T06:27:25;11.60;99.90
41922;DHT22;27609;51.002;5.354;2023-09-30T06:29:51;11.70;99.90
41922;DHT22;27609;51.002;5.354;2023-09-30T06:32:17;11.90;99.90
41922;DHT22;27609;51.002;5.354;2023-09-30T06:34:42;12.20;99.90
41922;DHT22;27609;51.002;5.354;2023-09-30T06:37:08;12.50;99.90
41922;DHT22;27609;51.002;5.354;2023-09-30T06:39:34;12.70;99.90
41922;DHT22;27609;51.002;5.354;2023-09-30T06:41:59;13.00;99.90
41922;DHT22;27609;51.002;5.354;2023-09-30T06:44:25;13.40;99.90
41922;DHT22;27609;51.002;5.354;2023-09-30T06:46:51;13.90;99.90
41922;DHT22;27609;51.002;5.354;2023-09-30T06:49:17;14.40;99.90
41922;DHT22;27609;51.002;5.354;2023-09-30T06:51:42;13.80;99.90
41922;DHT22;27609;51.002;5.354;2023-09-30T06:54:09;13.50;99.90
41922;DHT22;27609;51.002;5.354;2023-09-30T06:56:34;13.80;99.90
41922;DHT22;27609;51.002;5.354;2023-09-30T06:59:01;13.90;99.90
41922;DHT22;27609;51.002;5.354;2023-09-30T07:01:27;13.90;99.90
41922;DHT22;27609;51.002;5.354;2023-09-30T07:03:52;14.00;99.90
41922;DHT22;27609;51.002;5.354;2023-09-30T07:06:24;13.70;99.90
41922;DHT22;27609;51.002;5.354;2023-09-30T07:08:51;14.30;99.90
41922;DHT22;27609;51.002;5.354;2023-09-30T07:11:16;14.90;99.90
41922;DHT22;27609;51.002;5.354;2023-09-30T07:13:42;14.90;99.90
41922;DHT22;27609;51.002;5.354;2023-09-30T07:16:08;14.90;99.90
41922;DHT22;27609;51.002;5.354;2023-09-30T07:18:33;15.40;99.90
41922;DHT22;27609;51.002;5.354;2023-09-30T07:20:59;15.30;99.90
41922;DHT22;27609;51.002;5.354;2023-09-30T07:23:25;15.90;99.90
41922;DHT22;27609;51.002;5.354;2023-09-30T07:25:50;15.80;99.90
41922;DHT22;27609;51.002;5.354;2023-09-30T07:28:17;15.30;99.90
41922;DHT22;27609;51.002;5.354;2023-09-30T07:30:44;15.00;99.90
41922;DHT22;27609;51.002;5.354;2023-09-30T07:33:09;15.10;99.90
41922;DHT22;27609;51.002;5.354;2023-09-30T07:35:35;15.20;99.90
41922;DHT22;27609;51.002;5.354;2023-09-30T07:38:01;15.40;99.90
41922;DHT22;27609;51.002;5.354;2023-09-30T07:40:27;15.60;99.90
41922;DHT22;27609;51.002;5.354;2023-09-30T07:42:53;15.80;99.90
41922;DHT22;27609;51.002;5.354;2023-09-30T07:45:19;15.70;99.90
41922;DHT22;27609;51.002;5.354;2023-09-30T07:47:46;16.20;99.90
41922;DHT22;27609;51.002;5.354;2023-09-30T07:50:12;16.30;99.90
41922;DHT22;27609;51.002;5.354;2023-09-30T07:52:41;16.80;99.90
41922;DHT22;27609;51.002;5.354;2023-09-30T07:55:08;16.50;99.90
41922;DHT22;27609;51.002;5.354;2023-09-30T07:57:35;16.30;99.90
41922;DHT22;27609;51.002;5.354;2023-09-30T08:00:01;16.60;99.90
41922;DHT22;27609;51.002;5.354;2023-09-30T08:02:28;17.10;99.90
41922;DHT22;27609;51.002;5.354;2023-09-30T08:04:59;17.30;99.90
41922;DHT22;27609;51.002;5.354;2023-09-30T08:07:25;17.00;99.90
41922;DHT22;27609;51.002;5.354;2023-09-30T08:09:51;16.50;99.90
41922;DHT22;27609;51.002;5.354;2023-09-30T08:12:17;16.20;99.90
41922;DHT22;27609;51.002;5.354;2023-09-30T08:14:42;16.60;99.90
41922;DHT22;27609;51.002;5.354;2023-09-30T08:17:11;17.20;99.90
41922;DHT22;27609;51.002;5.354;2023-09-30T08:19:37;17.00;99.90
41922;DHT22;27609;51.002;5.354;2023-09-30T08:22:03;16.70;99.90
41922;DHT22;27609;51.002;5.354;2023-09-30T08:24:29;15.80;99.90
41922;DHT22;27609;51.002;5.354;2023-09-30T08:26:55;15.80;99.90
41922;DHT22;27609;51.002;5.354;2023-09-30T08:29:22;15.50;99.90
41922;DHT22;27609;51.002;5.354;2023-09-30T08:31:47;15.40;99.90
41922;DHT22;27609;51.002;5.354;2023-09-30T08:34:16;15.40;99.90
41922;DHT22;27609;51.002;5.354;2023-09-30T08:36:42;15.40;99.90
41922;DHT22;27609;51.002;5.354;2023-09-30T08:39:08;15.20;99.90
41922;DHT22;27609;51.002;5.354;2023-09-30T08:41:36;15.00;99.90
41922;DHT22;27609;51.002;5.354;2023-09-30T08:44:03;14.70;99.90
41922;DHT22;27609;51.002;5.354;2023-09-30T08:46:33;14.70;99.90
41922;DHT22;27609;51.002;5.354;2023-09-30T08:49:04;14.80;99.90
41922;DHT22;27609;51.002;5.354;2023-09-30T08:51:31;15.10;99.90
41922;DHT22;27609;51.002;5.354;2023-09-30T08:53:58;14.80;99.90
41922;DHT22;27609;51.002;5.354;2023-09-30T08:56:29;15.00;99.90
41922;DHT22;27609;51.002;5.354;2023-09-30T08:58:57;15.00;99.90
41922;DHT22;27609;51.002;5.354;2023-09-30T09:01:25;15.10;99.90
41922;DHT22;27609;51.002;5.354;2023-09-30T09:03:50;15.00;99.90
41922;DHT22;27609;51.002;5.354;2023-09-30T09:06:22;15.00;99.90
41922;DHT22;27609;51.002;5.354;2023-09-30T09:08:48;14.70;99.90
41922;DHT22;27609;51.002;5.354;2023-09-30T09:11:14;14.70;99.90
41922;DHT22;27609;51.002;5.354;2023-09-30T09:13:51;15.00;99.90
41922;DHT22;27609;51.002;5.354;2023-09-30T09:16:20;15.40;99.90
41922;DHT22;27609;51.002;5.354;2023-09-30T09:18:47;15.80;99.90
41922;DHT22;27609;51.002;5.354;2023-09-30T09:21:17;15.90;99.90
41922;DHT22;27609;51.002;5.354;2023-09-30T09:23:45;16.00;99.90
41922;DHT22;27609;51.002;5.354;2023-09-30T09:26:12;16.60;99.90
41922;DHT22;27609;51.002;5.354;2023-09-30T09:28:39;16.10;99.90
41922;DHT22;27609;51.002;5.354;2023-09-30T09:31:26;16.10;99.90
41922;DHT22;27609;51.002;5.354;2023-09-30T09:33:52;16.60;99.90
41922;DHT22;27609;51.002;5.354;2023-09-30T09:36:19;16.90;99.90
41922;DHT22;27609;51.002;5.354;2023-09-30T09:38:54;16.80;99.90
41922;DHT22;27609;51.002;5.354;2023-09-30T09:41:20;16.60;99.90
41922;DHT22;27609;51.002;5.354;2023-09-30T09:43:49;16.10;99.90
41922;DHT22;27609;51.002;5.354;2023-09-30T09:46:16;16.20;99.90
41922;DHT22;27609;51.002;5.354;2023-09-30T09:48:45;16.00;99.90
41922;DHT22;27609;51.002;5.354;2023-09-30T09:51:14;16.10;99.90
41922;DHT22;27609;51.002;5.354;2023-09-30T09:53:41;16.50;99.90
41922;DHT22;27609;51.002;5.354;2023-09-30T09:56:08;17.00;99.90
41922;DHT22;27609;51.002;5.354;2023-09-30T09:58:36;17.10;99.90
41922;DHT22;27609;51.002;5.354;2023-09-30T10:01:05;18.20;99.90
41922;DHT22;27609;51.002;5.354;2023-09-30T10:03:31;17.70;99.90
41922;DHT22;27609;51.002;5.354;2023-09-30T10:05:58;17.20;99.90
41922;DHT22;27609;51.002;5.354;2023-09-30T10:08:37;17.10;99.90
41922;DHT22;27609;51.002;5.354;2023-09-30T10:11:05;18.00;99.90
41922;DHT22;27609;51.002;5.354;2023-09-30T10:13:50;18.60;99.90
41922;DHT22;27609;51.002;5.354;2023-09-30T10:19:10;18.10;99.90
41922;DHT22;27609;51.002;5.354;2023-09-30T10:21:36;18.00;99.90
41922;DHT22;27609;51.002;5.354;2023-09-30T10:40:53;22.10;99.90
41922;DHT22;27609;51.002;5.354;2023-09-30T10:43:29;23.80;99.90
41922;DHT22;27609;51.002;5.354;2023-09-30T10:45:56;23.70;99.90
41922;DHT22;27609;51.002;5.354;2023-09-30T10:50:55;22.80;99.90
41922;DHT22;27609;51.002;5.354;2023-09-30T10:53:22;22.90;99.90
41922;DHT22;27609;51.002;5.354;2023-09-30T10:55:59;23.60;99.90
41922;DHT22;27609;51.002;5.354;2023-09-30T10:58:48;22.90;99.90
41922;DHT22;27609;51.002;5.354;2023-09-30T11:01:22;22.60;99.90
41922;DHT22;27609;51.002;5.354;2023-09-30T11:03:49;22.60;99.90
41922;DHT22;27609;51.002;5.354;2023-09-30T11:06:17;22.40;99.90
41922;DHT22;27609;51.002;5.354;2023-09-30T11:08:58;23.00;99.90
41922;DHT22;27609;51.002;5.354;2023-09-30T11:11:46;22.50;99.90
41922;DHT22;27609;51.002;5.354;2023-09-30T11:14:30;23.70;99.90
41922;DHT22;27609;51.002;5.354;2023-09-30T11:17:05;24.60;99.90
41922;DHT22;27609;51.002;5.354;2023-09-30T11:19:36;24.50;99.90
41922;DHT22;27609;51.002;5.354;2023-09-30T11:22:02;24.50;99.90
41922;DHT22;27609;51.002;5.354;2023-09-30T11:24:28;24.90;99.90
41922;DHT22;27609;51.002;5.354;2023-09-30T11:26:54;24.10;99.90
41922;DHT22;27609;51.002;5.354;2023-09-30T11:29:21;24.10;99.90
41922;DHT22;27609;51.002;5.354;2023-09-30T11:31:48;23.30;99.90
41922;DHT22;27609;51.002;5.354;2023-09-30T11:34:17;23.00;99.90
41922;DHT22;27609;51.002;5.354;2023-09-30T11:36:51;22.80;99.90
41922;DHT22;27609;51.002;5.354;2023-09-30T11:39:28;21.50;99.90
41922;DHT22;27609;51.002;5.354;2023-09-30T11:41:54;20.90;99.90
41922;DHT22;27609;51.002;5.354;2023-09-30T11:44:25;21.50;99.90
41922;DHT22;27609;51.002;5.354;2023-09-30T11:46:59;21.50;99.90
41922;DHT22;27609;51.002;5.354;2023-09-30T11:51:58;22.30;99.90
41922;DHT22;27609;51.002;5.354;2023-09-30T11:57:02;22.70;99.90
41922;DHT22;27609;51.002;5.354;2023-09-30T11:59:29;22.50;99.90
41922;DHT22;27609;51.002;5.354;2023-09-30T12:01:55;22.50;99.90
41922;DHT22;27609;51.002;5.354;2023-09-30T12:04:21;22.20;99.90
41922;DHT22;27609;51.002;5.354;2023-09-30T12:06:47;22.80;99.90
41922;DHT22;27609;51.002;5.354;2023-09-30T12:09:16;22.90;99.90
41922;DHT22;27609;51.002;5.354;2023-09-30T12:11:50;23.00;99.90
41922;DHT22;27609;51.002;5.354;2023-09-30T12:14:16;22.90;99.90
41922;DHT22;27609;51.002;5.354;2023-09-30T12:16:42;23.00;99.90
41922;DHT22;27609;51.002;5.354;2023-09-30T12:19:09;21.80;99.90
41922;DHT22;27609;51.002;5.354;2023-09-30T12:21:36;20.90;99.90
41922;DHT22;27609;51.002;5.354;2023-09-30T12:24:02;21.50;99.90
41922;DHT22;27609;51.002;5.354;2023-09-30T12:26:30;22.60;99.90
41922;DHT22;27609;51.002;5.354;2023-09-30T12:28:55;23.20;99.90
41922;DHT22;27609;51.002;5.354;2023-09-30T12:31:22;23.40;99.90
41922;DHT22;27609;51.002;5.354;2023-09-30T12:33:48;23.60;99.90
41922;DHT22;27609;51.002;5.354;2023-09-30T12:36:17;23.30;99.90
41922;DHT22;27609;51.002;5.354;2023-09-30T12:38:43;23.50;99.90
41922;DHT22;27609;51.002;5.354;2023-09-30T12:41:09;24.20;99.90
41922;DHT22;27609;51.002;5.354;2023-09-30T12:43:34;25.50;99.90
41922;DHT22;27609;51.002;5.354;2023-09-30T12:46:00;26.80;99.90
41922;DHT22;27609;51.002;5.354;2023-09-30T12:48:26;26.40;99.90
41922;DHT22;27609;51.002;5.354;2023-09-30T12:50:52;26.50;99.90
41922;DHT22;27609;51.002;5.354;2023-09-30T12:53:17;25.30;99.90
41922;DHT22;27609;51.002;5.354;2023-09-30T12:55:43;24.30;99.90
41922;DHT22;27609;51.002;5.354;2023-09-30T12:58:09;23.50;99.90
41922;DHT22;27609;51.002;5.354;2023-09-30T13:00:34;23.50;99.90
41922;DHT22;27609;51.002;5.354;2023-09-30T13:03:02;23.80;99.90
41922;DHT22;27609;51.002;5.354;2023-09-30T13:05:28;23.60;99.90
41922;DHT22;27609;51.002;5.354;2023-09-30T13:07:57;24.50;99.90
41922;DHT22;27609;51.002;5.354;2023-09-30T13:10:23;26.00;99.90
41922;DHT22;27609;51.002;5.354;2023-09-30T13:12:49;26.30;99.90
41922;DHT22;27609;51.002;5.354;2023-09-30T13:15:15;25.30;99.90
41922;DHT22;27609;51.002;5.354;2023-09-30T13:17:42;26.30;99.90
41922;DHT22;27609;51.002;5.354;2023-09-30T13:20:09;26.40;99.90
41922;DHT22;27609;51.002;5.354;2023-09-30T13:22:37;25.30;99.90
41922;DHT22;27609;51.002;5.354;2023-09-30T13:25:07;24.30;99.90
41922;DHT22;27609;51.002;5.354;2023-09-30T13:27:38;23.40;99.90
41922;DHT22;27609;51.002;5.354;2023-09-30T13:30:06;23.00;99.90
41922;DHT22;27609;51.002;5.354;2023-09-30T13:32:33;23.50;99.90
41922;DHT22;27609;51.002;5.354;2023-09-30T13:35:03;23.50;99.90
41922;DHT22;27609;51.002;5.354;2023-09-30T13:37:29;24.10;99.90
41922;DHT22;27609;51.002;5.354;2023-09-30T13:39:59;25.10;99.90
41922;DHT22;27609;51.002;5.354;2023-09-30T13:42:25;24.50;99.90
41922;DHT22;27609;51.002;5.354;2023-09-30T13:44:51;23.40;99.90
41922;DHT22;27609;51.002;5.354;2023-09-30T13:47:16;23.70;99.90
41922;DHT22;27609;51.002;5.354;2023-09-30T13:49:42;24.00;99.90
41922;DHT22;27609;51.002;5.354;2023-09-30T13:52:08;23.10;99.90
41922;DHT22;27609;51.002;5.354;2023-09-30T13:54:33;22.60;99.90
41922;DHT22;27609;51.002;5.354;2023-09-30T13:56:59;22.40;99.90
41922;DHT22;27609;51.002;5.354;2023-09-30T13:59:24;22.60;99.90
41922;DHT22;27609;51.002;5.354;2023-09-30T14:01:51;22.30;99.90
41922;DHT22;27609;51.002;5.354;2023-09-30T14:04:16;22.20;99.90
41922;DHT22;27609;51.002;5.354;2023-09-30T14:06:42;22.20;99.90
41922;DHT22;27609;51.002;5.354;2023-09-30T14:09:08;22.40;99.90
41922;DHT22;27609;51.002;5.354;2023-09-30T14:11:41;21.90;99.90
41922;DHT22;27609;51.002;5.354;2023-09-30T14:14:07;21.80;99.90
41922;DHT22;27609;51.002;5.354;2023-09-30T14:16:35;21.90;99.90
41922;DHT22;27609;51.002;5.354;2023-09-30T14:19:01;22.50;99.90
41922;DHT22;27609;51.002;5.354;2023-09-30T14:21:27;22.70;99.90
41922;DHT22;27609;51.002;5.354;2023-09-30T14:23:54;22.70;99.90
41922;DHT22;27609;51.002;5.354;2023-09-30T14:26:19;22.80;99.90
41922;DHT22;27609;51.002;5.354;2023-09-30T14:28:45;23.30;99.90
41922;DHT22;27609;51.002;5.354;2023-09-30T14:31:11;24.10;99.90
41922;DHT22;27609;51.002;5.354;2023-09-30T14:33:36;22.90;99.90
41922;DHT22;27609;51.002;5.354;2023-09-30T14:36:03;22.50;99.90
41922;DHT22;27609;51.002;5.354;2023-09-30T14:38:31;22.30;99.90
41922;DHT22;27609;51.002;5.354;2023-09-30T14:40:57;22.20;99.90
41922;DHT22;27609;51.002;5.354;2023-09-30T14:43:23;21.90;99.90
41922;DHT22;27609;51.002;5.354;2023-09-30T14:45:48;21.40;99.90
41922;DHT22;27609;51.002;5.354;2023-09-30T14:48:14;21.30;99.90
41922;DHT22;27609;51.002;5.354;2023-09-30T14:51:00;21.20;99.90
41922;DHT22;27609;51.002;5.354;2023-09-30T14:53:26;21.10;99.90
41922;DHT22;27609;51.002;5.354;2023-09-30T14:55:51;20.90;99.90
41922;DHT22;27609;51.002;5.354;2023-09-30T14:58:17;20.90;99.90
41922;DHT22;27609;51.002;5.354;2023-09-30T15:00:43;21.20;99.90
41922;DHT22;27609;51.002;5.354;2023-09-30T15:03:09;21.70;99.90
41922;DHT22;27609;51.002;5.354;2023-09-30T15:05:36;21.70;99.90
41922;DHT22;27609;51.002;5.354;2023-09-30T15:08:02;21.50;99.90
41922;DHT22;27609;51.002;5.354;2023-09-30T15:10:28;21.70;99.90
41922;DHT22;27609;51.002;5.354;2023-09-30T15:12:55;21.40;99.90
41922;DHT22;27609;51.002;5.354;2023-09-30T15:15:20;21.30;99.90
41922;DHT22;27609;51.002;5.354;2023-09-30T15:17:46;20.80;99.90
41922;DHT22;27609;51.002;5.354;2023-09-30T15:20:12;20.80;99.90
41922;DHT22;27609;51.002;5.354;2023-09-30T15:22:38;20.90;99.90
41922;DHT22;27609;51.002;5.354;2023-09-30T15:25:04;20.70;99.90
41922;DHT22;27609;51.002;5.354;2023-09-30T15:27:30;20.60;99.90
41922;DHT22;27609;51.002;5.354;2023-09-30T15:29:58;20.70;99.90
41922;DHT22;27609;51.002;5.354;2023-09-30T15:32:24;20.80;99.90
41922;DHT22;27609;51.002;5.354;2023-09-30T15:34:50;20.90;99.90
41922;DHT22;27609;51.002;5.354;2023-09-30T15:37:15;20.80;99.90
41922;DHT22;27609;51.002;5.354;2023-09-30T15:39:41;20.70;99.90
41922;DHT22;27609;51.002;5.354;2023-09-30T15:42:08;20.80;99.90
41922;DHT22;27609;51.002;5.354;2023-09-30T15:44:40;20.80;99.90
41922;DHT22;27609;51.002;5.354;2023-09-30T15:47:06;21.00;99.90
41922;DHT22;27609;51.002;5.354;2023-09-30T15:49:33;21.00;99.90
41922;DHT22;27609;51.002;5.354;2023-09-30T15:51:58;21.10;99.90
41922;DHT22;27609;51.002;5.354;2023-09-30T15:54:24;21.20;99.90
41922;DHT22;27609;51.002;5.354;2023-09-30T15:56:50;21.20;99.90